Time;durP1;ratioP1;P1;durP2;ratioP2;P2;SDS_P1;SDS_P2;PMS_P1;PMS_P2;Temp;Humidity;BMP_temperature;BMP_pressure;BME280_temperature;BME280_humidity;BME280_pressure;Samples;Min_cycle;Max_cycle;Signal;HPM_P1;HPM_P2
2024/04/04 00:01:54;;;;;;;6.60;4.20;;;;;;;9.69;68.85;96741.02;105082;1266;104918;-73
2024/04/04 00:04:21;;;;;;;8.60;4.40;;;;;;;9.67;68.94;96739.27;105001;1261;101225;-74
2024/04/04 00:06:49;;;;;;;10.90;5.20;;;;;;;9.65;68.90;96736.80;104857;1267;100136;-74
2024/04/04 00:09:16;;;;;;;11.10;5.40;;;;;;;9.64;68.98;96732.91;105041;1257;99327;-74
2024/04/04 00:11:44;;;;;;;11.30;5.40;;;;;;;9.65;68.94;96731.52;105157;1257;99699;-74
2024/04/04 00:14:12;;;;;;;10.60;5.20;;;;;;;9.65;69.10;96729.95;105038;1257;103903;-74
2024/04/04 00:16:39;;;;;;;10.90;5.50;;;;;;;9.61;69.12;96725.35;105029;1261;100458;-73
2024/04/04 00:19:07;;;;;;;8.30;5.10;;;;;;;9.53;69.13;96723.22;104947;1267;99619;-73
2024/04/04 00:21:34;;;;;;;11.50;6.20;;;;;;;9.48;69.30;96720.08;105041;1275;100675;-73
2024/04/04 00:24:02;;;;;;;11.80;5.80;;;;;;;9.45;69.58;96721.17;105000;1264;99855;-73
2024/04/04 00:26:30;;;;;;;11.10;4.90;;;;;;;9.44;69.76;96721.77;105020;1268;104035;-73
2024/04/04 00:28:57;;;;;;;12.70;5.80;;;;;;;9.42;69.80;96722.52;105072;1267;101877;-73
2024/04/04 00:31:25;;;;;;;11.20;5.60;;;;;;;9.36;69.79;96718.02;105080;1265;99243;-73
2024/04/04 00:33:52;;;;;;;11.00;5.70;;;;;;;9.33;69.90;96716.84;104982;1256;99260;-80
2024/04/04 00:36:20;;;;;;;11.50;5.20;;;;;;;9.33;70.12;96719.91;104955;1256;99310;-80
2024/04/04 00:38:47;;;;;;;14.40;6.80;;;;;;;9.30;70.08;96717.98;104906;1260;104043;-80
2024/04/04 00:41:15;;;;;;;11.20;6.70;;;;;;;9.29;70.22;96718.88;105026;1259;99206;-80
2024/04/04 00:43:42;;;;;;;12.90;5.90;;;;;;;9.29;70.32;96720.98;104869;1263;99193;-80
2024/04/04 00:46:10;;;;;;;10.00;6.10;;;;;;;9.31;70.27;96722.04;105001;1275;99262;-80
2024/04/04 00:48:37;;;;;;;10.50;5.70;;;;;;;9.32;70.33;96721.11;104947;1267;99847;-80
2024/04/04 00:51:05;;;;;;;8.80;5.40;;;;;;;9.33;70.31;96720.28;105042;1258;100603;-80
2024/04/04 00:53:34;;;;;;;9.10;5.20;;;;;;;9.32;70.51;96724.30;105064;1266;99860;-80
2024/04/04 00:56:02;;;;;;;9.60;4.90;;;;;;;9.32;70.49;96729.08;104979;1257;99931;-80
2024/04/04 00:58:30;;;;;;;11.00;6.30;;;;;;;9.31;70.63;96728.79;104932;1257;100667;-80
2024/04/04 01:00:58;;;;;;;11.60;6.40;;;;;;;9.27;70.55;96725.48;105018;1258;99702;-79
2024/04/04 01:03:25;;;;;;;9.90;5.60;;;;;;;9.23;70.78;96726.38;105058;1258;105143;-79
2024/04/04 01:05:53;;;;;;;9.30;5.80;;;;;;;9.22;70.85;96724.23;105076;1272;108408;-78
2024/04/04 01:08:22;;;;;;;11.30;6.10;;;;;;;9.20;70.83;96722.45;104995;1257;99324;-79
2024/04/04 01:10:49;;;;;;;10.80;6.50;;;;;;;9.17;71.05;96722.83;105219;1255;100740;-74
2024/04/04 01:13:17;;;;;;;9.30;5.70;;;;;;;9.15;71.21;96724.16;105122;1266;99775;-74
2024/04/04 01:15:44;;;;;;;9.50;5.40;;;;;;;9.14;71.24;96724.63;105011;1255;105145;-72
2024/04/04 01:18:11;;;;;;;8.50;4.60;;;;;;;9.13;71.33;96727.88;105010;1261;99284;-73
2024/04/04 01:20:39;;;;;;;7.90;3.70;;;;;;;9.11;71.40;96724.94;104879;1255;99375;-72
2024/04/04 01:23:06;;;;;;;8.70;4.20;;;;;;;9.10;71.56;96722.95;104920;1257;99854;-73
2024/04/04 01:25:34;;;;;;;6.00;3.50;;;;;;;9.09;71.60;96720.05;105033;1257;99326;-73
2024/04/04 01:28:01;;;;;;;7.70;4.00;;;;;;;9.05;71.68;96715.38;105031;1266;99237;-73
2024/04/04 01:30:29;;;;;;;13.10;4.70;;;;;;;8.99;71.60;96716.33;105170;1254;99269;-74
2024/04/04 01:32:56;;;;;;;9.50;5.00;;;;;;;8.97;71.86;96714.30;105040;1265;99279;-74
2024/04/04 01:35:24;;;;;;;8.10;5.10;;;;;;;8.95;71.86;96714.14;104995;1258;99363;-74
2024/04/04 01:37:51;;;;;;;8.40;4.80;;;;;;;8.92;71.89;96714.27;105001;1258;99328;-74
2024/04/04 01:40:19;;;;;;;9.40;4.80;;;;;;;8.91;71.97;96721.48;105024;1266;99322;-74
2024/04/04 01:42:46;;;;;;;6.70;4.10;;;;;;;8.88;72.06;96718.27;104974;1257;99262;-75
2024/04/04 01:45:14;;;;;;;9.30;3.70;;;;;;;8.85;72.08;96715.34;104979;1269;99257;-74
2024/04/04 01:47:41;;;;;;;6.90;4.30;;;;;;;8.81;72.20;96716.36;105026;1267;99267;-73
2024/04/04 01:50:09;;;;;;;7.50;4.60;;;;;;;8.79;72.29;96716.39;105057;1264;99333;-80
2024/04/04 01:52:36;;;;;;;10.20;5.10;;;;;;;8.73;72.43;96719.73;105035;1264;99243;-80
2024/04/04 01:55:04;;;;;;;8.80;5.00;;;;;;;8.70;72.49;96717.63;105031;1258;99321;-81
2024/04/04 01:57:32;;;;;;;9.50;5.10;;;;;;;8.66;72.73;96716.92;105025;1255;99330;-80
2024/04/04 01:59:59;;;;;;;9.40;5.80;;;;;;;8.63;72.82;96717.39;104981;1258;99263;-80
2024/04/04 02:02:27;;;;;;;11.40;5.50;;;;;;;8.60;73.01;96716.89;105065;1254;99769;-79
2024/04/04 02:04:55;;;;;;;8.40;3.90;;;;;;;8.54;73.02;96720.41;105013;1266;104981;-80
2024/04/04 02:07:22;;;;;;;8.10;4.20;;;;;;;8.52;73.12;96723.04;104976;1258;100581;-80
2024/04/04 02:09:50;;;;;;;7.40;3.60;;;;;;;8.50;73.06;96719.27;104939;1266;99250;-75
2024/04/04 02:12:17;;;;;;;6.00;2.90;;;;;;;8.48;73.11;96718.61;105094;1254;99256;-74
2024/04/04 02:14:45;;;;;;;8.50;4.40;;;;;;;8.43;73.31;96721.14;105067;1256;99212;-75
2024/04/04 02:17:12;;;;;;;7.30;3.80;;;;;;;8.38;73.41;96725.21;105032;1254;99199;-74
2024/04/04 02:19:40;;;;;;;5.70;4.00;;;;;;;8.38;73.46;96727.07;105015;1266;99227;-74
2024/04/04 02:22:08;;;;;;;8.70;4.50;;;;;;;8.39;73.49;96729.09;105002;1255;99878;-74
2024/04/04 02:24:35;;;;;;;10.30;4.60;;;;;;;8.42;73.56;96730.20;105056;1256;99333;-75
2024/04/04 02:27:03;;;;;;;7.40;4.10;;;;;;;8.44;73.54;96731.69;105017;1258;99766;-74
2024/04/04 02:29:30;;;;;;;7.80;4.20;;;;;;;8.45;73.67;96727.58;104975;1257;104898;-74
2024/04/04 02:31:58;;;;;;;11.60;4.70;;;;;;;8.46;73.62;96727.07;105005;1260;99811;-74
2024/04/04 02:34:25;;;;;;;8.20;3.80;;;;;;;8.48;73.52;96724.54;105007;1267;99264;-74
2024/04/04 02:36:53;;;;;;;7.60;4.30;;;;;;;8.48;73.48;96725.40;104998;1257;99245;-74
2024/04/04 02:39:21;;;;;;;6.80;4.00;;;;;;;8.47;73.60;96722.88;105033;1257;99858;-74
2024/04/04 02:41:48;;;;;;;5.40;3.30;;;;;;;8.46;73.71;96720.07;104989;1254;104886;-75
2024/04/04 02:44:15;;;;;;;6.80;3.80;;;;;;;8.46;73.76;96724.95;104929;1270;99269;-74
2024/04/04 02:46:44;;;;;;;6.10;3.50;;;;;;;8.46;73.81;96726.84;105032;1254;99257;-74
2024/04/04 02:49:11;;;;;;;9.00;3.80;;;;;;;8.44;73.90;96728.02;105029;1257;99221;-74
2024/04/04 02:51:39;;;;;;;6.70;3.50;;;;;;;8.43;73.92;96730.03;104957;1257;99250;-74
2024/04/04 02:54:06;;;;;;;7.20;3.50;;;;;;;8.40;73.91;96731.38;104957;1256;99378;-74
2024/04/04 02:56:34;;;;;;;4.80;3.40;;;;;;;8.39;74.00;96729.27;104989;1256;99394;-74
2024/04/04 02:59:01;;;;;;;9.00;3.70;;;;;;;8.39;74.17;96726.15;105080;1254;99398;-74
2024/04/04 03:01:29;;;;;;;5.00;3.10;;;;;;;8.39;74.24;96723.84;105016;1258;100590;-72
2024/04/04 03:03:56;;;;;;;6.00;3.40;;;;;;;8.38;74.25;96720.20;105108;1254;99251;-72
2024/04/04 03:06:24;;;;;;;6.80;4.30;;;;;;;8.38;74.37;96723.27;105064;1257;100008;-79
2024/04/04 03:08:51;;;;;;;8.60;4.10;;;;;;;8.37;74.38;96722.20;104997;1257;100086;-72
2024/04/04 03:11:19;;;;;;;9.00;4.30;;;;;;;8.38;74.44;96725.63;105091;1256;100818;-72
2024/04/04 03:13:47;;;;;;;8.10;4.00;;;;;;;8.38;74.32;96724.05;105033;1258;99355;-72
2024/04/04 03:16:14;;;;;;;6.50;3.30;;;;;;;8.36;74.53;96720.70;105036;1257;99255;-72
2024/04/04 03:18:42;;;;;;;8.50;4.00;;;;;;;8.35;74.48;96724.42;105021;1266;99302;-72
2024/04/04 03:21:09;;;;;;;8.50;3.90;;;;;;;8.35;74.47;96722.98;104976;1259;99274;-72
2024/04/04 03:23:37;;;;;;;8.40;3.70;;;;;;;8.33;74.61;96722.90;105064;1266;99323;-72
2024/04/04 03:26:04;;;;;;;6.90;3.80;;;;;;;8.35;74.57;96724.97;105093;1257;99802;-72
2024/04/04 03:28:32;;;;;;;7.90;4.30;;;;;;;8.36;74.57;96726.20;104994;1257;99154;-72
2024/04/04 03:31:00;;;;;;;7.60;4.30;;;;;;;8.36;74.61;96726.55;104992;1254;103901;-74
2024/04/04 03:33:27;;;;;;;7.60;4.50;;;;;;;8.36;74.63;96726.42;104961;1259;99207;-74
2024/04/04 03:35:55;;;;;;;5.00;3.50;;;;;;;8.34;74.74;96728.39;104936;1257;99646;-73
2024/04/04 03:38:22;;;;;;;8.00;4.10;;;;;;;8.35;74.74;96729.10;104964;1258;99253;-73
2024/04/04 03:40:56;;;;;;;7.00;3.70;;;;;;;8.35;74.79;96728.86;105030;1254;99763;-74
2024/04/04 03:43:24;;;;;;;8.20;3.90;;;;;;;8.35;74.83;96731.75;105000;1254;103721;-74
2024/04/04 03:45:51;;;;;;;7.00;3.30;;;;;;;8.35;74.80;96733.32;105059;1257;101583;-74
2024/04/04 03:48:20;;;;;;;5.50;3.50;;;;;;;8.34;74.75;96733.16;104853;1261;99945;-74
2024/04/04 03:50:48;;;;;;;7.10;4.90;;;;;;;8.32;74.82;96734.48;105118;1253;99259;-73
2024/04/04 03:53:15;;;;;;;5.60;3.90;;;;;;;8.32;74.86;96735.71;105007;1257;99698;-74
2024/04/04 03:55:43;;;;;;;6.80;3.70;;;;;;;8.29;75.10;96743.64;105043;1266;104082;-74
2024/04/04 03:58:11;;;;;;;8.40;3.50;;;;;;;8.24;75.09;96746.62;105027;1256;101789;-74
2024/04/04 04:00:39;;;;;;;4.50;3.30;;;;;;;8.24;75.11;96747.94;105038;1266;106968;-73
2024/04/04 04:03:06;;;;;;;7.30;3.70;;;;;;;8.24;75.31;96747.95;105115;1258;99327;-74
2024/04/04 04:05:34;;;;;;;6.40;2.90;;;;;;;8.24;75.34;96748.52;105099;1258;99736;-74
2024/04/04 04:08:02;;;;;;;7.80;3.00;;;;;;;8.24;75.41;96745.70;105025;1254;104062;-78
2024/04/04 04:10:31;;;;;;;5.70;2.80;;;;;;;8.23;75.47;96744.30;105041;1257;100495;-78
2024/04/04 04:12:59;;;;;;;6.50;4.10;;;;;;;8.22;75.52;96744.43;105022;1256;100047;-78
2024/04/04 04:15:29;;;;;;;10.40;4.10;;;;;;;8.20;75.40;96747.23;105023;1257;99298;-78
2024/04/04 04:17:57;;;;;;;5.60;3.30;;;;;;;8.20;75.61;96748.30;104958;1257;99728;-79
2024/04/04 04:23:09;;;;;;;4.70;2.70;;;;;;;8.16;75.70;96757.04;104958;1264;100423;-79
2024/04/04 04:25:37;;;;;;;6.30;3.50;;;;;;;8.15;75.83;96759.02;105062;1257;99266;-78
2024/04/04 04:28:05;;;;;;;8.70;4.40;;;;;;;8.16;75.81;96758.73;105015;1257;99255;-78
2024/04/04 04:30:33;;;;;;;9.40;4.30;;;;;;;8.18;76.04;96755.30;104970;1257;99751;-80
2024/04/04 04:33:01;;;;;;;10.30;5.60;;;;;;;8.20;76.08;96757.56;105060;1268;104948;-80
2024/04/04 04:35:29;;;;;;;17.90;6.10;;;;;;;8.22;76.15;96760.77;105067;1265;100439;-79
2024/04/04 04:37:56;;;;;;;15.40;5.60;;;;;;;8.24;76.20;96761.55;104938;1257;100665;-79
2024/04/04 04:40:24;;;;;;;10.60;4.70;;;;;;;8.26;76.17;96759.48;104999;1257;100463;-80
2024/04/04 04:42:51;;;;;;;11.80;5.40;;;;;;;8.27;76.14;96758.73;104989;1254;100673;-79
2024/04/04 04:45:20;;;;;;;19.30;17.40;;;;;;;8.29;76.22;96762.53;104991;1263;99267;-80
2024/04/04 04:47:48;;;;;;;13.30;5.90;;;;;;;8.33;76.27;96768.25;105050;1254;99981;-72
2024/04/04 04:50:15;;;;;;;4.90;3.20;;;;;;;8.34;76.41;96770.49;105017;1257;99337;-72
2024/04/04 04:52:42;;;;;;;6.40;3.50;;;;;;;8.32;76.45;96773.55;105084;1256;99279;-74
2024/04/04 04:55:10;;;;;;;6.80;3.30;;;;;;;8.32;76.32;96775.13;105056;1257;99253;-74
2024/04/04 04:57:37;;;;;;;13.30;3.80;;;;;;;8.35;76.27;96774.02;105016;1257;99353;-74
2024/04/04 05:00:09;;;;;;;6.50;3.70;;;;;;;8.37;76.41;96769.15;104991;1257;99600;-72
2024/04/04 05:02:37;;;;;;;6.60;3.60;;;;;;;8.43;76.45;96769.92;105049;1256;100482;-74
2024/04/04 05:05:16;;;;;;;7.70;4.20;;;;;;;8.48;76.60;96774.85;105019;1257;99321;-74
2024/04/04 05:07:44;;;;;;;11.20;5.10;;;;;;;8.51;76.74;96775.52;105047;1253;99781;-74
2024/04/04 05:10:12;;;;;;;11.60;5.10;;;;;;;8.53;76.73;96777.95;105053;1258;104998;-74
2024/04/04 05:12:39;;;;;;;11.10;4.90;;;;;;;8.55;76.77;96778.93;105143;1266;101212;-74
2024/04/04 05:15:07;;;;;;;10.30;4.50;;;;;;;8.56;76.65;96785.93;105013;1252;99886;-74
2024/04/04 05:17:35;;;;;;;12.60;4.10;;;;;;;8.58;76.70;96788.21;105117;1254;99318;-78
2024/04/04 05:20:04;;;;;;;10.50;4.20;;;;;;;8.60;76.56;96781.80;105027;1266;100467;-79
2024/04/04 05:22:32;;;;;;;9.00;3.90;;;;;;;8.64;76.70;96779.71;105112;1256;105122;-80
2024/04/04 05:24:59;;;;;;;16.80;5.30;;;;;;;8.70;76.66;96779.02;104961;1258;100052;-79
2024/04/04 05:27:27;;;;;;;11.80;5.80;;;;;;;8.74;76.82;96780.48;105032;1257;100467;-79
2024/04/04 05:29:54;;;;;;;15.80;6.00;;;;;;;8.78;76.77;96782.84;105024;1256;99353;-79
2024/04/04 05:32:22;;;;;;;20.70;8.30;;;;;;;8.82;76.73;96778.42;105036;1267;99233;-79
2024/04/04 05:34:50;;;;;;;18.60;8.30;;;;;;;8.85;76.58;96780.92;105060;1257;99293;-79
2024/04/04 05:37:18;;;;;;;16.70;6.60;;;;;;;8.88;76.62;96780.70;105051;1256;101560;-79
2024/04/04 05:39:45;;;;;;;10.20;4.50;;;;;;;8.94;76.47;96781.66;105006;1254;99404;-79
2024/04/04 05:42:13;;;;;;;8.20;4.20;;;;;;;8.96;76.49;96778.13;105011;1256;99272;-79
2024/04/04 05:44:40;;;;;;;11.80;5.30;;;;;;;9.01;76.39;96780.51;105064;1257;99750;-79
2024/04/04 05:47:08;;;;;;;12.70;5.90;;;;;;;9.08;76.54;96778.46;105069;1257;99253;-79
2024/04/04 05:49:35;;;;;;;14.50;5.60;;;;;;;9.11;76.60;96780.19;105080;1254;100540;-80
2024/04/04 05:52:03;;;;;;;13.40;6.00;;;;;;;9.13;76.53;96781.34;105004;1257;99282;-79
2024/04/04 05:54:31;;;;;;;13.80;6.50;;;;;;;9.16;76.53;96784.27;105061;1257;99362;-80
2024/04/04 05:56:59;;;;;;;9.70;5.50;;;;;;;9.17;76.58;96786.29;105080;1257;100578;-80
2024/04/04 05:59:26;;;;;;;8.80;4.30;;;;;;;9.19;76.54;96786.35;105010;1268;105531;-80
2024/04/04 06:01:54;;;;;;;13.60;4.60;;;;;;;9.22;76.54;96781.48;105094;1257;99516;-80
2024/04/04 06:04:21;;;;;;;7.90;3.90;;;;;;;9.24;76.34;96785.83;105098;1256;99305;-80
2024/04/04 06:06:49;;;;;;;7.10;3.70;;;;;;;9.28;76.03;96791.56;104985;1266;99183;-80
2024/04/04 06:09:16;;;;;;;10.30;3.80;;;;;;;9.31;75.92;96794.88;105188;1254;100489;-80
2024/04/04 06:11:44;;;;;;;10.80;3.50;;;;;;;9.33;75.99;96798.56;105204;1254;99404;-80
2024/04/04 06:14:11;;;;;;;7.80;3.30;;;;;;;9.36;75.63;96801.68;105177;1254;100900;-80
2024/04/04 06:16:39;;;;;;;16.00;5.60;;;;;;;9.39;75.72;96801.30;105232;1256;100674;-80
2024/04/04 06:19:07;;;;;;;10.10;5.80;;;;;;;9.42;75.80;96801.55;105289;1254;99330;-79
2024/04/04 06:21:34;;;;;;;17.10;7.60;;;;;;;9.44;75.81;96799.34;105157;1257;99861;-80
2024/04/04 06:24:02;;;;;;;23.10;11.60;;;;;;;9.46;75.89;96790.70;105061;1253;99225;-80
2024/04/04 06:26:29;;;;;;;25.00;15.60;;;;;;;9.50;76.14;96787.45;105050;1264;100716;-80
2024/04/04 06:28:57;;;;;;;29.90;16.50;;;;;;;9.55;76.16;96792.14;105054;1257;100136;-80
2024/04/04 06:31:25;;;;;;;22.30;14.50;;;;;;;9.62;76.22;96795.02;105033;1266;99272;-79
2024/04/04 06:33:52;;;;;;;21.20;12.40;;;;;;;9.74;76.35;96799.70;105010;1253;99174;-79
2024/04/04 06:36:20;;;;;;;7.50;4.50;;;;;;;9.87;76.20;96800.16;105009;1257;104173;-74
2024/04/04 06:38:47;;;;;;;3.10;2.70;;;;;;;9.99;75.42;96802.11;105000;1257;100075;-74
2024/04/04 06:41:15;;;;;;;5.30;2.90;;;;;;;10.10;74.61;96797.61;104915;1257;100123;-74
2024/04/04 06:43:42;;;;;;;3.00;2.20;;;;;;;10.24;74.57;96797.61;104994;1254;99323;-74
2024/04/04 06:46:10;;;;;;;3.40;1.90;;;;;;;10.41;74.64;96799.16;105065;1254;99273;-74
2024/04/04 06:48:41;;;;;;;3.60;2.40;;;;;;;10.60;74.74;96798.21;105045;1253;99175;-74
2024/04/04 06:51:09;;;;;;;3.40;1.60;;;;;;;10.79;73.92;96800.41;104902;1263;101475;-74
2024/04/04 06:53:37;;;;;;;4.10;1.60;;;;;;;10.94;72.50;96800.63;104957;1261;99269;-74
2024/04/04 06:56:05;;;;;;;2.80;1.60;;;;;;;11.07;71.73;96801.74;105010;1256;99266;-74
2024/04/04 06:58:33;;;;;;;5.60;2.60;;;;;;;11.23;71.77;96801.60;104949;1257;99230;-73
2024/04/04 07:01:01;;;;;;;3.60;1.90;;;;;;;11.38;71.29;96800.92;104910;1267;105045;-72
2024/04/04 07:03:29;;;;;;;2.40;1.60;;;;;;;11.52;70.73;96799.63;104937;1271;100597;-72
2024/04/04 07:05:57;;;;;;;3.10;1.50;;;;;;;11.64;70.00;96797.27;104755;1261;100795;-72
2024/04/04 07:08:24;;;;;;;2.90;1.50;;;;;;;11.78;69.92;96798.81;104923;1256;99347;-72
2024/04/04 07:11:00;;;;;;;4.40;1.40;;;;;;;11.91;69.15;96801.35;104917;1257;99716;-72
2024/04/04 07:13:27;;;;;;;3.30;1.30;;;;;;;12.01;68.51;96802.25;104985;1256;105117;-72
2024/04/04 07:16:02;;;;;;;4.80;1.40;;;;;;;12.12;68.00;96804.13;104877;1254;100429;-74
2024/04/04 07:18:31;;;;;;;2.80;1.40;;;;;;;12.25;67.46;96807.61;104953;1258;100626;-74
2024/04/04 07:20:59;;;;;;;3.50;1.10;;;;;;;12.37;66.94;96809.47;105012;1256;99355;-74
2024/04/04 07:23:27;;;;;;;2.20;1.40;;;;;;;12.53;66.61;96814.86;104968;1255;99772;-74
2024/04/04 07:25:56;;;;;;;4.40;1.80;;;;;;;12.67;65.07;96815.84;104887;1265;105118;-74
2024/04/04 07:28:24;;;;;;;4.20;2.20;;;;;;;12.80;65.42;96813.51;104885;1256;101536;-74
2024/04/04 07:30:52;;;;;;;3.30;1.50;;;;;;;12.93;65.14;96812.63;104957;1256;99238;-74
2024/04/04 07:33:20;;;;;;;5.30;1.60;;;;;;;13.00;63.77;96815.45;104876;1266;99234;-74
2024/04/04 07:35:47;;;;;;;3.50;1.60;;;;;;;13.09;62.28;96817.48;104985;1257;99675;-79
2024/04/04 07:38:15;;;;;;;3.30;1.40;;;;;;;13.30;62.04;96813.99;104923;1254;105099;-79
2024/04/04 07:40:42;;;;;;;2.80;1.40;;;;;;;13.51;61.19;96809.86;104915;1259;100543;-79
2024/04/04 07:43:11;;;;;;;1.90;1.10;;;;;;;13.69;61.10;96812.46;104859;1256;99356;-79
2024/04/04 07:45:41;;;;;;;9.20;2.70;;;;;;;13.92;61.27;96807.68;104964;1256;99241;-79
2024/04/04 07:48:11;;;;;;;4.80;2.20;;;;;;;14.26;61.08;96808.15;104953;1256;99666;-79
2024/04/04 07:50:40;;;;;;;5.00;2.20;;;;;;;14.44;59.73;96808.55;105078;1258;103951;-79
2024/04/04 07:53:08;;;;;;;2.30;1.50;;;;;;;14.42;59.03;96807.11;105076;1264;100635;-79
2024/04/04 07:55:36;;;;;;;2.80;1.50;;;;;;;14.56;59.38;96809.98;105050;1256;99321;-77
2024/04/04 07:58:04;;;;;;;1.90;1.60;;;;;;;14.76;59.55;96808.55;104945;1268;99250;-77
2024/04/04 08:00:32;;;;;;;3.90;2.40;;;;;;;15.10;58.45;96809.56;105069;1266;99689;-79
2024/04/04 08:03:00;;;;;;;4.90;1.90;;;;;;;15.39;57.73;96804.13;105043;1257;103802;-79
2024/04/04 08:05:31;;;;;;;2.60;1.80;;;;;;;15.77;57.34;96805.38;105048;1257;101527;-79
2024/04/04 08:07:59;;;;;;;3.90;1.40;;;;;;;16.25;56.35;96812.30;104950;1259;100372;-79
2024/04/04 08:10:27;;;;;;;2.70;1.50;;;;;;;16.46;55.18;96816.85;105006;1254;99356;-78
2024/04/04 08:12:55;;;;;;;2.80;1.10;;;;;;;16.41;53.92;96815.59;105041;1258;100457;-80
2024/04/04 08:15:23;;;;;;;2.30;1.00;;;;;;;16.34;53.72;96808.94;105023;1257;104919;-79
2024/04/04 08:17:51;;;;;;;2.70;1.60;;;;;;;16.08;52.51;96810.05;105023;1253;100401;-79
2024/04/04 08:20:18;;;;;;;9.10;4.50;;;;;;;15.84;53.33;96807.25;104966;1257;99328;-79
2024/04/04 08:22:46;;;;;;;9.20;4.50;;;;;;;15.70;53.71;96807.94;105054;1257;99252;-79
2024/04/04 08:25:14;;;;;;;5.70;2.70;;;;;;;15.60;53.44;96804.04;105057;1254;99708;-79
2024/04/04 08:27:45;;;;;;;6.30;3.70;;;;;;;15.66;53.79;96800.23;105025;1264;104054;-79
2024/04/04 08:30:13;;;;;;;7.10;3.10;;;;;;;15.60;53.07;96800.00;105030;1257;101430;-79
2024/04/04 08:32:41;;;;;;;4.70;1.20;;;;;;;15.47;53.34;96800.67;105048;1257;100492;-82
2024/04/04 08:35:10;;;;;;;2.00;1.10;;;;;;;15.40;52.25;96803.70;104977;1254;99199;-81
2024/04/04 08:37:38;;;;;;;3.60;1.50;;;;;;;15.26;51.25;96806.05;104975;1256;99691;-81
2024/04/04 08:40:06;;;;;;;3.70;1.80;;;;;;;15.09;50.99;96801.84;105069;1257;104710;-81
2024/04/04 08:42:34;;;;;;;5.90;2.20;;;;;;;14.94;51.49;96798.61;105033;1254;100526;-81
2024/04/04 08:45:03;;;;;;;5.10;3.00;;;;;;;14.88;51.87;96792.13;105040;1257;100228;-82
2024/04/04 08:47:31;;;;;;;2.20;1.20;;;;;;;14.84;52.05;96792.84;105022;1254;99270;-81
2024/04/04 08:49:59;;;;;;;3.50;1.60;;;;;;;14.82;52.43;96789.17;105157;1256;99768;-73
2024/04/04 08:52:26;;;;;;;2.60;1.40;;;;;;;14.84;52.56;96786.11;105049;1253;104889;-73
2024/04/04 08:54:54;;;;;;;1.40;0.90;;;;;;;14.96;52.40;96789.23;105062;1257;100714;-73
2024/04/04 08:57:24;;;;;;;2.00;0.90;;;;;;;15.06;51.54;96787.89;105077;1256;100147;-72
2024/04/04 08:59:58;;;;;;;3.20;1.20;;;;;;;15.14;51.10;96787.80;105063;1266;99312;-73
2024/04/04 09:02:29;;;;;;;2.10;1.00;;;;;;;15.20;49.89;96785.64;105101;1268;99163;-81
2024/04/04 09:05:07;;;;;;;1.70;0.80;;;;;;;15.10;50.47;96786.52;105049;1256;104915;-82
2024/04/04 09:07:36;;;;;;;1.20;0.70;;;;;;;15.29;50.72;96789.43;105143;1257;101595;-82
2024/04/04 09:10:05;;;;;;;2.30;1.20;;;;;;;15.76;51.10;96790.56;105011;1257;100598;-82
2024/04/04 09:12:33;;;;;;;5.00;1.60;;;;;;;16.36;51.00;96792.17;105150;1257;99320;-82
2024/04/04 09:15:01;;;;;;;3.70;1.50;;;;;;;16.97;50.47;96787.81;105068;1257;99790;-82
2024/04/04 09:17:28;;;;;;;3.50;1.50;;;;;;;17.50;49.17;96785.52;105005;1256;104746;-82
2024/04/04 09:19:57;;;;;;;1.50;0.90;;;;;;;17.82;47.70;96787.77;104968;1253;101430;-82
2024/04/04 09:22:25;;;;;;;2.20;1.60;;;;;;;18.01;45.90;96784.88;105089;1257;99979;-82
2024/04/04 09:25:00;;;;;;;2.30;0.90;;;;;;;18.23;46.80;96780.45;105015;1257;100495;-82
2024/04/04 09:27:28;;;;;;;1.90;1.00;;;;;;;18.58;46.71;96783.17;105037;1257;99403;-83
2024/04/04 09:29:56;;;;;;;3.80;1.20;;;;;;;19.01;46.74;96787.10;105102;1258;103944;-82
2024/04/04 09:32:26;;;;;;;2.80;1.10;;;;;;;19.30;46.22;96787.84;105056;1257;101544;-74
2024/04/04 09:34:54;;;;;;;2.20;1.20;;;;;;;19.20;44.68;96791.06;105031;1264;99269;-75
2024/04/04 09:37:24;;;;;;;5.00;1.50;;;;;;;18.86;44.33;96803.13;105036;1257;99247;-74
2024/04/04 09:39:51;;;;;;;1.70;1.10;;;;;;;18.54;44.65;96801.73;105029;1256;99881;-74
2024/04/04 09:42:24;;;;;;;2.60;1.10;;;;;;;18.22;44.75;96800.77;105073;1256;103981;-74
2024/04/04 09:44:51;;;;;;;2.10;1.10;;;;;;;17.88;45.26;96800.55;105068;1254;101488;-74
2024/04/04 09:47:20;;;;;;;2.50;1.20;;;;;;;17.87;45.98;96802.30;105066;1256;100005;-74
2024/04/04 09:49:52;;;;;;;1.50;1.00;;;;;;;17.95;45.73;96803.45;105060;1256;99746;-74
2024/04/04 09:52:25;;;;;;;3.80;1.20;;;;;;;17.84;45.56;96802.52;105085;1256;99388;-80
2024/04/04 09:54:53;;;;;;;1.40;0.90;;;;;;;17.89;45.76;96798.59;105126;1268;104997;-80
2024/04/04 09:57:21;;;;;;;2.30;1.30;;;;;;;17.78;44.76;96806.55;105060;1257;100586;-80
2024/04/04 10:00:18;;;;;;;3.50;1.00;;;;;;;17.73;44.71;96807.69;105074;1257;100047;-80
2024/04/04 10:02:59;;;;;;;2.00;1.30;;;;;;;18.14;43.83;96809.13;105017;1254;99352;-82
2024/04/04 10:05:36;;;;;;;1.10;0.90;;;;;;;18.44;43.75;96807.85;105102;1256;100486;-83
2024/04/04 10:08:09;;;;;;;2.10;1.10;;;;;;;18.42;44.07;96806.42;104988;1256;104767;-82
2024/04/04 10:10:37;;;;;;;2.50;0.90;;;;;;;18.21;43.21;96810.55;105081;1255;101528;-81
2024/04/04 10:13:09;;;;;;;1.20;1.10;;;;;;;17.96;43.63;96808.81;104928;1257;99753;-82
2024/04/04 10:15:44;;;;;;;3.00;0.90;;;;;;;17.77;44.07;96808.52;105115;1257;99202;-81
2024/04/04 10:18:13;;;;;;;1.20;1.00;;;;;;;17.58;43.64;96811.09;105002;1257;99638;-81
2024/04/04 10:20:54;;;;;;;3.10;1.10;;;;;;;17.32;43.53;96817.46;105044;1256;104981;-81
2024/04/04 10:23:31;;;;;;;1.70;0.80;;;;;;;17.10;43.69;96816.35;105057;1257;100414;-82
2024/04/04 10:26:09;;;;;;;2.20;1.00;;;;;;;16.89;44.28;96826.66;105028;1270;100216;-82
2024/04/04 10:28:37;;;;;;;1.40;1.00;;;;;;;16.75;44.79;96830.19;105053;1254;100553;-74
2024/04/04 10:31:04;;;;;;;2.10;1.00;;;;;;;16.68;44.96;96832.17;105049;1255;99696;-75
2024/04/04 10:33:32;;;;;;;2.00;1.10;;;;;;;16.57;44.72;96834.70;104999;1258;105200;-76
2024/04/04 10:36:01;;;;;;;1.80;0.80;;;;;;;16.46;45.22;96836.47;104976;1257;100401;-75
2024/04/04 10:38:29;;;;;;;1.50;0.80;;;;;;;16.47;45.73;96838.16;105074;1256;100152;-75
2024/04/04 10:40:57;;;;;;;2.50;0.90;;;;;;;16.45;44.94;96839.69;105072;1257;99287;-75
2024/04/04 10:43:25;;;;;;;5.00;0.90;;;;;;;16.38;45.17;96836.25;105094;1256;100332;-75
2024/04/04 10:45:53;;;;;;;0.90;0.60;;;;;;;16.30;45.00;96835.86;105092;1261;103742;-81
2024/04/04 10:48:21;;;;;;;2.00;0.60;;;;;;;16.23;45.09;96841.20;105079;1254;101540;-75
2024/04/04 10:50:49;;;;;;;0.70;0.40;;;;;;;16.21;45.14;96844.67;105019;1271;99238;-75
2024/04/04 10:53:16;;;;;;;2.50;0.80;;;;;;;16.25;45.28;96841.22;105055;1256;99406;-75
2024/04/04 10:55:44;;;;;;;1.20;0.80;;;;;;;16.38;45.92;96844.96;105071;1269;99176;-75
2024/04/04 10:58:12;;;;;;;4.00;1.20;;;;;;;16.51;45.68;96845.72;105118;1270;105061;-76
2024/04/04 11:00:40;;;;;;;0.80;0.70;;;;;;;16.57;45.82;96836.59;104981;1257;179487;-73
2024/04/04 11:03:09;;;;;;;3.30;1.00;;;;;;;16.51;45.57;96839.99;105032;1254;100435;-73
2024/04/04 11:05:37;;;;;;;0.70;0.60;;;;;;;16.41;45.65;96840.86;105130;1256;99289;-74
2024/04/04 11:08:06;;;;;;;6.00;1.30;;;;;;;16.30;45.62;96838.21;105100;1256;99833;-73
2024/04/04 11:10:34;;;;;;;1.50;1.00;;;;;;;16.24;46.16;96840.95;105147;1257;103905;-73
2024/04/04 11:13:02;;;;;;;1.30;1.00;;;;;;;16.32;46.60;96835.02;105050;1257;101661;-73
2024/04/04 11:15:30;;;;;;;1.00;0.70;;;;;;;16.44;46.66;96837.77;105060;1253;100196;-73
2024/04/04 11:17:58;;;;;;;2.10;0.90;;;;;;;16.55;46.62;96838.16;104996;1257;99265;-73
2024/04/04 11:20:26;;;;;;;1.50;0.90;;;;;;;16.61;46.36;96844.34;105103;1256;99676;-73
2024/04/04 11:22:55;;;;;;;2.90;0.60;;;;;;;16.77;46.17;96846.06;105094;1256;105226;-73
2024/04/04 11:25:22;;;;;;;1.10;0.70;;;;;;;17.13;45.82;96840.84;105098;1257;100120;-82
2024/04/04 11:27:50;;;;;;;1.80;0.50;;;;;;;17.30;45.39;96840.63;105075;1257;99289;-82
2024/04/04 11:30:17;;;;;;;1.10;0.60;;;;;;;17.31;45.04;96839.54;104975;1254;100591;-83
2024/04/04 11:32:46;;;;;;;1.20;0.70;;;;;;;17.21;44.58;96837.33;105053;1255;99586;-83